createdAt,value
2023-01-03T00:01:15.655Z,5.14
2023-01-03T00:04:02.055Z,4.51
2023-01-03T00:06:51.871Z,4.96
2023-01-03T00:09:37.095Z,5.06
2023-01-03T00:12:30.443Z,5.01
2023-01-03T00:15:16.575Z,5.07
2023-01-03T00:18:02.739Z,3.97
2023-01-03T00:20:49.176Z,3.85
2023-01-03T00:23:34.579Z,4.82
2023-01-03T00:26:20.180Z,3.84
2023-01-03T00:29:05.529Z,4.89
2023-01-03T00:31:52.027Z,3.80
2023-01-03T00:34:38.283Z,5.14
2023-01-03T00:37:23.852Z,3.55
2023-01-03T00:40:09.757Z,4.74
2023-01-03T00:43:13.747Z,5.13
2023-01-03T00:46:00.602Z,5.13
2023-01-03T00:48:47.239Z,5.11
2023-01-03T00:51:35.622Z,5.14
2023-01-03T00:54:22.041Z,5.11
2023-01-03T00:57:07.582Z,5.03
2023-01-03T00:59:52.859Z,4.47
2023-01-03T01:02:38.280Z,3.62
2023-01-03T01:05:24.448Z,4.85
2023-01-03T01:08:10.337Z,4.49
2023-01-03T01:11:04.761Z,4.77
2023-01-03T01:13:51.205Z,3.78
2023-01-03T01:16:36.324Z,4.48
2023-01-03T01:19:28.403Z,3.48
2023-01-03T01:22:13.965Z,4.77
2023-01-03T01:24:59.445Z,4.74
2023-01-03T01:27:44.777Z,4.76
2023-01-03T01:30:30.234Z,3.58
2023-01-03T01:33:15.677Z,4.66
2023-01-03T01:36:09.552Z,4.57
2023-01-03T01:39:00.843Z,3.36
2023-01-03T01:42:08.088Z,4.74
2023-01-03T01:44:58.606Z,4.82
2023-01-03T01:47:56.362Z,4.77
2023-01-03T01:50:46.740Z,5.24
2023-01-03T01:53:35.838Z,5.34
2023-01-03T01:56:29.764Z,4.74
2023-01-03T01:59:15.958Z,5.55
2023-01-03T02:02:01.475Z,5.67
2023-01-03T02:04:52.154Z,6.10
2023-01-03T02:07:38.328Z,6.07
2023-01-03T02:10:51.571Z,6.23
2023-01-03T02:14:07.346Z,6.10
2023-01-03T02:17:12.010Z,5.99
2023-01-03T02:20:18.966Z,5.91
2023-01-03T02:23:28.560Z,5.64
2023-01-03T02:26:23.250Z,5.80
2023-01-03T02:29:27.547Z,5.75
2023-01-03T02:32:43.210Z,4.53
2023-01-03T02:35:49.774Z,5.45
2023-01-03T02:38:38.081Z,5.46
2023-01-03T02:41:36.010Z,3.98
2023-01-03T02:44:36.845Z,5.18
2023-01-03T02:47:25.758Z,5.07
2023-01-03T02:50:14.134Z,3.81
2023-01-03T02:53:06.353Z,4.64
2023-01-03T02:55:55.083Z,3.54
2023-01-03T02:58:46.417Z,4.43
2023-01-03T03:01:36.008Z,4.74
2023-01-03T03:04:23.609Z,4.45
2023-01-03T03:07:23.546Z,4.53
2023-01-03T03:10:30.156Z,4.42
2023-01-03T03:13:29.871Z,4.29
2023-01-03T03:16:40.652Z,4.57
2023-01-03T03:19:51.260Z,3.33
2023-01-03T03:22:55.505Z,4.42
2023-01-03T03:26:07.297Z,4.20
2023-01-03T03:28:58.528Z,4.59
2023-01-03T03:31:48.066Z,4.88
2023-01-03T03:34:38.164Z,4.51
2023-01-03T03:37:31.035Z,4.59
2023-01-03T03:40:35.553Z,4.19
2023-01-03T03:43:51.164Z,4.94
2023-01-03T03:46:54.762Z,4.77
2023-01-03T03:49:45.227Z,4.66
2023-01-03T03:52:33.841Z,5.36
2023-01-03T03:55:25.104Z,3.98
2023-01-03T03:58:40.369Z,5.48
2023-01-03T04:01:27.784Z,4.21
2023-01-03T04:04:24.664Z,5.27
2023-01-03T04:07:09.956Z,5.11
2023-01-03T04:09:55.646Z,5.52
2023-01-03T04:12:41.402Z,4.62
2023-01-03T04:15:26.746Z,5.52
2023-01-03T04:18:12.255Z,5.63
2023-01-03T04:20:57.699Z,5.60
2023-01-03T04:23:43.582Z,5.07
2023-01-03T04:26:29.038Z,6.05
2023-01-03T04:29:14.639Z,6.25
2023-01-03T04:32:00.173Z,5.90
2023-01-03T04:34:45.515Z,6.54
2023-01-03T04:37:30.901Z,6.44
2023-01-03T04:40:16.800Z,7.21
2023-01-03T04:43:21.239Z,7.30
2023-01-03T04:46:07.172Z,7.34
2023-01-03T04:48:52.394Z,6.44
2023-01-03T04:51:37.834Z,7.79
2023-01-03T04:54:23.075Z,6.86
2023-01-03T04:57:08.706Z,8.07
2023-01-03T04:59:54.276Z,7.98
2023-01-03T05:02:39.842Z,8.30
2023-01-03T05:05:25.142Z,8.37
2023-01-03T05:08:13.212Z,8.10
2023-01-03T05:10:58.637Z,8.42
2023-01-03T05:13:44.142Z,8.36
2023-01-03T05:16:30.063Z,7.31
2023-01-03T05:19:15.687Z,8.39
2023-01-03T05:22:19.574Z,7.41
2023-01-03T05:25:28.570Z,8.76
2023-01-03T05:28:17.500Z,8.74
2023-01-03T05:31:03.667Z,8.62
2023-01-03T05:33:49.133Z,8.81
2023-01-03T05:36:34.557Z,7.94
2023-01-03T05:39:19.916Z,8.38
2023-01-03T05:42:05.832Z,8.56
2023-01-03T05:44:52.342Z,8.94
2023-01-03T05:47:37.995Z,8.62
2023-01-03T05:50:23.303Z,7.73
2023-01-03T05:53:15.333Z,8.95
2023-01-03T05:56:04.441Z,8.97
2023-01-03T05:58:49.802Z,8.97
2023-01-03T06:01:36.411Z,8.91
2023-01-03T06:04:22.405Z,8.91
2023-01-03T06:07:08.209Z,8.84
2023-01-03T06:09:53.631Z,8.64
2023-01-03T06:12:39.988Z,8.93
2023-01-03T06:15:25.692Z,8.92
2023-01-03T06:18:11.248Z,8.80
2023-01-03T06:20:56.530Z,8.89
2023-01-03T06:23:42.037Z,8.85
2023-01-03T06:26:27.457Z,8.83
2023-01-03T06:29:12.890Z,8.30
2023-01-03T06:32:01.150Z,7.89
2023-01-03T06:34:50.266Z,9.12
2023-01-03T06:37:35.604Z,9.16
2023-01-03T06:40:22.988Z,9.19
2023-01-03T06:43:08.964Z,9.22
2023-01-03T06:46:14.756Z,9.19
2023-01-03T06:49:19.074Z,8.27
2023-01-03T06:52:30.921Z,9.25
2023-01-03T06:55:16.942Z,8.34
2023-01-03T06:58:03.167Z,9.33
2023-01-03T07:00:48.923Z,9.40
2023-01-03T07:03:34.627Z,9.51
2023-01-03T07:06:19.895Z,9.31
2023-01-03T07:09:05.801Z,8.50
2023-01-03T07:11:51.427Z,8.52
2023-01-03T07:14:36.692Z,9.78
2023-01-03T07:17:22.095Z,9.93
2023-01-03T07:20:07.993Z,10.08
2023-01-03T07:22:53.388Z,9.29
2023-01-03T07:25:41.349Z,10.21
2023-01-03T07:28:27.082Z,10.13
2023-01-03T07:31:12.875Z,10.11
2023-01-03T07:33:59.369Z,10.06
2023-01-03T07:36:45.007Z,9.79
2023-01-03T07:39:30.341Z,10.34
2023-01-03T07:42:34.696Z,10.70
2023-01-03T07:45:19.926Z,10.03
2023-01-03T07:48:05.458Z,10.57
2023-01-03T07:50:50.786Z,10.54
2023-01-03T07:53:36.706Z,10.62
2023-01-03T07:56:25.137Z,10.60
2023-01-03T07:59:10.583Z,9.56
2023-01-03T08:01:56.619Z,10.17
2023-01-03T08:04:43.334Z,10.23
2023-01-03T08:07:29.065Z,9.70
2023-01-03T08:10:45.363Z,10.06
2023-01-03T08:13:31.142Z,10.19
2023-01-03T08:16:18.467Z,10.22
2023-01-03T08:19:04.127Z,9.69
2023-01-03T08:21:49.809Z,9.98
2023-01-03T08:24:35.342Z,8.90
2023-01-03T08:27:21.796Z,9.99
2023-01-03T08:30:07.721Z,9.99
2023-01-03T08:32:55.830Z,8.81
2023-01-03T08:35:49.251Z,9.71
2023-01-03T08:38:43.914Z,9.43
2023-01-03T08:41:33.060Z,8.81
2023-01-03T08:44:18.833Z,9.86
2023-01-03T08:47:08.256Z,9.04
2023-01-03T08:49:55.650Z,8.87
2023-01-03T08:52:41.316Z,9.73
2023-01-03T08:55:27.111Z,10.03
2023-01-03T08:58:12.295Z,9.98
2023-01-03T09:01:04.909Z,9.51
2023-01-03T09:03:50.991Z,9.63
2023-01-03T09:06:37.002Z,8.76
2023-01-03T09:09:22.385Z,10.01
2023-01-03T09:12:07.894Z,9.97
2023-01-03T09:14:53.252Z,10.00
2023-01-03T09:17:42.199Z,9.76
2023-01-03T09:20:27.736Z,10.04
2023-01-03T09:23:13.545Z,8.82
2023-01-03T09:25:59.312Z,10.16
2023-01-03T09:28:45.013Z,9.95
2023-01-03T09:31:34.959Z,9.37
2023-01-03T09:34:20.939Z,10.28
2023-01-03T09:37:06.753Z,9.63
2023-01-03T09:39:52.465Z,10.34
2023-01-03T09:42:56.886Z,9.93
2023-01-03T09:45:45.911Z,10.34
2023-01-03T09:48:40.905Z,9.28
2023-01-03T09:51:49.468Z,10.07
2023-01-03T09:54:58.441Z,10.18
2023-01-03T09:58:03.121Z,10.34
2023-01-03T10:01:12.762Z,10.20
2023-01-03T10:04:05.140Z,10.60
2023-01-03T10:07:25.293Z,10.57
2023-01-03T10:10:16.874Z,10.56
2023-01-03T10:13:26.091Z,10.54
2023-01-03T10:16:17.660Z,10.27
2023-01-03T10:19:27.622Z,10.51
2023-01-03T10:22:19.054Z,10.16
2023-01-03T10:25:04.327Z,10.45
2023-01-03T10:28:12.869Z,9.90
2023-01-03T10:31:10.637Z,10.30
2023-01-03T10:33:57.163Z,9.06
2023-01-03T10:36:42.820Z,9.63
2023-01-03T10:39:31.331Z,9.93
2023-01-03T10:42:19.655Z,9.77
2023-01-03T10:45:25.820Z,10.14
2023-01-03T10:48:14.191Z,9.17
2023-01-03T10:50:59.441Z,8.91
2023-01-03T10:53:44.941Z,9.58
2023-01-03T10:56:30.994Z,9.00
2023-01-03T10:59:23.341Z,9.97
2023-01-03T11:02:09.127Z,10.21
2023-01-03T11:05:12.669Z,10.18
2023-01-03T11:08:01.778Z,10.27
2023-01-03T11:10:57.187Z,9.64
2023-01-03T11:13:43.251Z,10.29
2023-01-03T11:16:32.104Z,9.50
2023-01-03T11:19:20.701Z,9.20
2023-01-03T11:22:37.686Z,10.47
2023-01-03T11:25:32.683Z,10.37
2023-01-03T11:28:48.153Z,9.17
2023-01-03T11:31:51.704Z,10.29
2023-01-03T11:35:24.396Z,10.34
2023-01-03T11:38:13.171Z,10.34
2023-01-03T11:41:16.830Z,10.34
2023-01-03T11:44:32.599Z,9.85
2023-01-03T11:47:30.268Z,10.34
2023-01-03T11:50:39.435Z,10.34
2023-01-03T11:53:43.413Z,10.35
2023-01-03T11:56:34.012Z,10.02
2023-01-03T11:59:34.822Z,10.37
2023-01-03T12:02:29.881Z,10.39
2023-01-03T12:05:30.592Z,10.41
2023-01-03T12:08:33.347Z,10.19
2023-01-03T12:11:29.308Z,10.40
2023-01-03T12:14:52.049Z,10.42
2023-01-03T12:17:41.059Z,10.38
2023-01-03T12:20:32.379Z,9.03
2023-01-03T12:23:21.138Z,10.36
2023-01-03T12:26:10.541Z,10.34
2023-01-03T12:29:06.021Z,10.35
2023-01-03T12:31:57.220Z,10.37
2023-01-03T12:35:08.112Z,10.36
2023-01-03T12:37:57.484Z,9.40
2023-01-03T12:40:55.777Z,10.34
2023-01-03T12:44:17.755Z,10.30
2023-01-03T12:47:05.697Z,10.28
2023-01-03T12:49:55.960Z,10.19
2023-01-03T12:52:43.277Z,10.16
2023-01-03T12:56:28.053Z,9.96
2023-01-03T13:00:05.181Z,10.23
2023-01-03T13:02:51.409Z,10.19
2023-01-03T13:05:43.260Z,9.26
2023-01-03T13:08:43.268Z,10.20
2023-01-03T13:11:42.435Z,10.16
2023-01-03T13:14:29.322Z,10.18
2023-01-03T13:17:19.356Z,9.68
2023-01-03T13:20:31.496Z,10.17
2023-01-03T13:23:34.142Z,10.04
2023-01-03T13:26:21.643Z,9.32
2023-01-03T13:29:35.172Z,10.15
2023-01-03T13:32:23.973Z,10.14
2023-01-03T13:35:15.369Z,10.13
2023-01-03T13:38:13.098Z,9.90
2023-01-03T13:41:17.822Z,10.10
2023-01-03T13:44:09.604Z,8.94
2023-01-03T13:46:56.765Z,9.34
2023-01-03T13:49:53.650Z,10.00
2023-01-03T13:53:12.390Z,10.00
2023-01-03T13:56:01.041Z,8.83
2023-01-03T13:58:50.512Z,9.96
2023-01-03T14:01:55.447Z,10.00
2023-01-03T14:04:50.354Z,9.98
2023-01-03T14:08:00.041Z,9.00
2023-01-03T14:11:09.315Z,9.81
2023-01-03T14:14:04.490Z,9.68
2023-01-03T14:16:53.010Z,9.84
2023-01-03T14:19:41.900Z,9.29
2023-01-03T14:22:41.344Z,9.72
2023-01-03T14:25:41.061Z,9.44
2023-01-03T14:28:33.798Z,9.70
2023-01-03T14:31:27.108Z,9.66
2023-01-03T14:34:28.858Z,9.46
2023-01-03T14:37:21.117Z,9.31
2023-01-03T14:40:18.586Z,9.50
2023-01-03T14:43:04.937Z,9.08
2023-01-03T14:45:57.307Z,9.36
2023-01-03T14:48:46.305Z,9.42
2023-01-03T14:51:34.473Z,9.07
2023-01-03T14:54:20.561Z,8.98
2023-01-03T14:57:05.720Z,9.03
2023-01-03T14:59:53.528Z,8.63
2023-01-03T15:02:41.162Z,9.23
2023-01-03T15:05:34.062Z,7.95
2023-01-03T15:08:26.081Z,9.14
2023-01-03T15:11:13.761Z,9.11
2023-01-03T15:14:03.331Z,9.01
2023-01-03T15:16:50.237Z,8.73
2023-01-03T15:19:39.292Z,8.91
2023-01-03T15:22:39.717Z,8.68
2023-01-03T15:25:38.969Z,8.92
2023-01-03T15:28:30.685Z,7.67
2023-01-03T15:31:30.783Z,9.03
2023-01-03T15:34:18.364Z,8.98
2023-01-03T15:37:21.842Z,7.71
2023-01-03T15:40:11.608Z,8.41
2023-01-03T15:43:21.706Z,8.65
2023-01-03T15:46:16.552Z,7.68
2023-01-03T15:49:03.182Z,7.46
2023-01-03T15:51:48.705Z,7.99
2023-01-03T15:54:35.132Z,7.32
2023-01-03T15:57:30.120Z,7.47
2023-01-03T16:00:20.184Z,8.28
2023-01-03T16:03:07.402Z,8.63
2023-01-03T16:05:54.157Z,7.26
2023-01-03T16:08:40.733Z,8.52
2023-01-03T16:11:33.787Z,7.22
2023-01-03T16:14:24.320Z,7.92
2023-01-03T16:17:22.609Z,8.46
2023-01-03T16:20:18.114Z,7.45
2023-01-03T16:23:03.751Z,8.51
2023-01-03T16:25:49.398Z,8.52
2023-01-03T16:28:35.119Z,8.44
2023-01-03T16:31:28.484Z,8.53
2023-01-03T16:34:19.687Z,8.56
2023-01-03T16:37:05.387Z,8.57
2023-01-03T16:39:51.066Z,8.55
2023-01-03T16:42:36.705Z,7.50
2023-01-03T16:45:22.777Z,7.33
2023-01-03T16:48:16.142Z,8.26
2023-01-03T16:51:01.926Z,8.49
2023-01-03T16:53:48.489Z,7.72
2023-01-03T16:56:33.753Z,8.59
2023-01-03T16:59:21.569Z,8.60
2023-01-03T17:02:07.562Z,8.56
2023-01-03T17:04:53.463Z,7.35
2023-01-03T17:07:39.994Z,8.52
2023-01-03T17:10:28.169Z,7.25
2023-01-03T17:13:26.263Z,8.04
2023-01-03T17:16:22.847Z,7.39
2023-01-03T17:20:01.195Z,6.98
2023-01-03T17:22:25.525Z,8.26
2023-01-03T17:25:11.589Z,8.30
2023-01-03T17:27:59.916Z,7.45
2023-01-03T17:30:45.186Z,8.12
2023-01-03T17:33:34.272Z,8.26
2023-01-03T17:36:30.689Z,8.10
2023-01-03T17:39:16.847Z,8.23
2023-01-03T17:42:17.756Z,8.20
2023-01-03T17:45:23.617Z,8.13
2023-01-03T17:48:32.207Z,6.81
2023-01-03T17:51:18.674Z,6.91
2023-01-03T17:54:04.441Z,7.38
2023-01-03T17:56:50.695Z,7.61
2023-01-03T17:59:36.429Z,7.79
2023-01-03T18:02:24.827Z,6.84
2023-01-03T18:05:17.679Z,7.80
2023-01-03T18:08:16.728Z,7.72
2023-01-03T18:11:02.461Z,7.64
2023-01-03T18:13:49.476Z,6.19
2023-01-03T18:16:34.683Z,7.40
2023-01-03T18:19:20.619Z,7.01
2023-01-03T18:22:06.015Z,6.40
2023-01-03T18:24:52.525Z,6.71
2023-01-03T18:27:38.085Z,6.44
2023-01-03T18:30:24.396Z,7.44
2023-01-03T18:33:10.067Z,7.40
2023-01-03T18:35:56.173Z,7.29
2023-01-03T18:38:41.732Z,7.24
2023-01-03T18:41:29.681Z,6.19
2023-01-03T18:44:23.253Z,7.18
2023-01-03T18:47:15.567Z,7.15
2023-01-03T18:50:01.293Z,6.74
2023-01-03T18:52:48.559Z,6.73
2023-01-03T18:55:35.484Z,6.71
2023-01-03T18:58:38.968Z,6.37
2023-01-03T19:01:25.060Z,6.86
2023-01-03T19:04:10.611Z,6.33
2023-01-03T19:06:56.417Z,5.70
2023-01-03T19:09:41.956Z,6.34
2023-01-03T19:12:27.521Z,6.27
2023-01-03T19:15:25.424Z,5.13
2023-01-03T19:18:11.889Z,6.03
2023-01-03T19:20:57.270Z,6.31
2023-01-03T19:23:44.913Z,5.02
2023-01-03T19:26:33.749Z,5.94
2023-01-03T19:29:23.695Z,5.79
2023-01-03T19:32:19.162Z,6.11
2023-01-03T19:35:14.613Z,6.00
2023-01-03T19:38:00.701Z,6.03
2023-01-03T19:40:47.024Z,5.98
2023-01-03T19:43:33.594Z,5.08
2023-01-03T19:46:19.430Z,5.69
2023-01-03T19:49:10.803Z,6.03
2023-01-03T19:51:57.176Z,5.67
2023-01-03T19:54:59.486Z,6.10
2023-01-03T19:57:50.678Z,6.18
2023-01-03T20:00:37.415Z,5.93
2023-01-03T20:03:39.580Z,6.12
2023-01-03T20:06:28.894Z,5.88
2023-01-03T20:09:15.090Z,6.02
2023-01-03T20:12:01.794Z,6.28
2023-01-03T20:14:51.112Z,5.22
2023-01-03T20:17:37.787Z,6.14
2023-01-03T20:20:33.264Z,6.14
2023-01-03T20:23:19.858Z,6.27
2023-01-03T20:26:06.016Z,5.04
2023-01-03T20:28:52.948Z,5.25
2023-01-03T20:31:39.806Z,6.24
2023-01-03T20:34:25.884Z,6.21
2023-01-03T20:37:17.892Z,6.18
2023-01-03T20:40:06.470Z,6.13
2023-01-03T20:42:53.144Z,6.13
2023-01-03T20:45:38.531Z,4.74
2023-01-03T20:48:26.190Z,5.63
2023-01-03T20:51:15.912Z,5.76
2023-01-03T20:54:03.120Z,6.14
2023-01-03T20:56:53.254Z,5.74
2023-01-03T20:59:39.958Z,6.12
2023-01-03T21:02:30.071Z,6.12
2023-01-03T21:05:17.749Z,6.09
2023-01-03T21:08:25.372Z,4.43
2023-01-03T21:11:12.803Z,5.37
2023-01-03T21:14:03.505Z,6.08
2023-01-03T21:16:54.686Z,6.06
2023-01-03T21:19:42.113Z,5.71
2023-01-03T21:22:28.636Z,5.67
2023-01-03T21:25:25.377Z,6.05
2023-01-03T21:28:14.609Z,5.93
2023-01-03T21:31:04.982Z,5.62
2023-01-03T21:33:51.807Z,4.78
2023-01-03T21:36:37.541Z,5.67
2023-01-03T21:39:23.969Z,5.97
2023-01-03T21:42:32.602Z,5.95
2023-01-03T21:45:18.033Z,5.91
2023-01-03T21:48:07.156Z,5.86
2023-01-03T21:50:53.292Z,5.82
2023-01-03T21:53:39.176Z,5.85
2023-01-03T21:56:25.865Z,5.95
2023-01-03T21:59:13.922Z,5.97
2023-01-03T22:02:19.381Z,5.65
2023-01-03T22:05:06.488Z,5.93
2023-01-03T22:07:53.829Z,5.93
2023-01-03T22:10:42.285Z,5.93
2023-01-03T22:13:29.287Z,4.29
2023-01-03T22:16:16.777Z,5.93
2023-01-03T22:19:03.755Z,5.95
2023-01-03T22:21:49.666Z,5.53
2023-01-03T22:24:36.066Z,5.46
2023-01-03T22:27:22.227Z,5.93
2023-01-03T22:30:11.628Z,5.03
2023-01-03T22:32:58.017Z,5.96
2023-01-03T22:35:44.420Z,5.56
2023-01-03T22:38:30.199Z,5.95
2023-01-03T22:41:17.719Z,5.13
2023-01-03T22:44:03.695Z,4.87
2023-01-03T22:46:49.477Z,4.72
2023-01-03T22:49:35.864Z,5.48
2023-01-03T22:52:21.323Z,5.59
2023-01-03T22:55:08.097Z,5.29
2023-01-03T22:57:54.193Z,4.87
2023-01-03T23:00:40.510Z,5.91
2023-01-03T23:03:25.861Z,4.89
2023-01-03T23:06:15.709Z,5.97
2023-01-03T23:09:02.466Z,5.99
2023-01-03T23:12:07.475Z,5.62
2023-01-03T23:14:52.814Z,4.69
2023-01-03T23:17:56.830Z,5.46
2023-01-03T23:20:48.793Z,5.77
2023-01-03T23:23:34.092Z,5.61
2023-01-03T23:26:19.534Z,5.48
2023-01-03T23:29:05.536Z,4.71
2023-01-03T23:31:52.848Z,5.72
2023-01-03T23:34:38.557Z,5.47
2023-01-03T23:37:23.906Z,5.25
2023-01-03T23:40:10.109Z,4.60
2023-01-03T23:42:55.944Z,5.75
2023-01-03T23:45:41.275Z,4.45
2023-01-03T23:48:26.692Z,4.49
2023-01-03T23:51:12.594Z,4.57
2023-01-03T23:53:57.970Z,4.45
2023-01-03T23:56:43.519Z,4.86
2023-01-03T23:59:28.645Z,5.49
